createdAt,value
2023-01-04T00:00:39.187Z,7.20
2023-01-04T00:01:41.488Z,7.32
2023-01-04T00:02:44.028Z,6.65
2023-01-04T00:03:46.899Z,5.90
2023-01-04T00:04:49.241Z,6.18
2023-01-04T00:05:51.476Z,6.47
2023-01-04T00:06:54.398Z,5.82
2023-01-04T00:07:58.629Z,6.18
2023-01-04T00:09:00.841Z,6.50
2023-01-04T00:10:03.290Z,6.32
2023-01-04T00:11:08.582Z,6.45
2023-01-04T00:12:10.927Z,6.55
2023-01-04T00:13:13.151Z,5.90
2023-01-04T00:14:17.181Z,6.43
2023-01-04T00:15:19.404Z,5.82
2023-01-04T00:16:24.297Z,7.00
2023-01-04T00:17:26.555Z,5.40
2023-01-04T00:18:30.384Z,5.47
2023-01-04T00:19:32.770Z,6.60
2023-01-04T00:20:35.008Z,6.47
2023-01-04T00:21:37.178Z,5.72
2023-01-04T00:22:39.394Z,7.15
2023-01-04T00:23:42.912Z,5.78
2023-01-04T00:24:45.708Z,6.72
2023-01-04T00:25:47.955Z,6.13
2023-01-04T00:26:50.302Z,6.03
2023-01-04T00:27:52.791Z,6.05
2023-01-04T00:28:57.044Z,6.13
2023-01-04T00:29:59.268Z,5.95
2023-01-04T00:31:03.873Z,5.78
2023-01-04T00:32:06.230Z,5.75
2023-01-04T00:33:08.444Z,6.72
2023-01-04T00:34:13.453Z,7.60
2023-01-04T00:35:33.187Z,7.13
2023-01-04T00:36:38.126Z,7.85
2023-01-04T00:37:40.367Z,8.20
2023-01-04T00:38:42.873Z,7.00
2023-01-04T00:39:45.085Z,7.78
2023-01-04T00:40:47.355Z,7.43
2023-01-04T00:42:00.136Z,7.35
2023-01-04T00:43:02.664Z,6.90
2023-01-04T00:44:09.138Z,6.82
2023-01-04T00:45:11.387Z,8.20
2023-01-04T00:46:13.682Z,8.00
2023-01-04T00:47:15.859Z,7.55
2023-01-04T00:48:18.116Z,6.15
2023-01-04T00:49:23.392Z,6.13
2023-01-04T00:50:25.689Z,5.20
2023-01-04T00:51:29.862Z,5.28
2023-01-04T00:52:32.062Z,5.90
2023-01-04T00:53:34.380Z,5.85
2023-01-04T00:54:36.624Z,5.45
2023-01-04T00:55:38.864Z,5.38
2023-01-04T00:56:41.497Z,4.95
2023-01-04T00:57:43.707Z,4.70
2023-01-04T00:58:46.026Z,4.65
2023-01-04T00:59:48.173Z,5.75
2023-01-04T01:00:50.668Z,5.55
2023-01-04T01:01:53.356Z,4.65
2023-01-04T01:02:55.902Z,4.93
2023-01-04T01:04:00.567Z,5.30
2023-01-04T01:05:02.812Z,5.60
2023-01-04T01:06:06.441Z,5.63
2023-01-04T01:07:08.665Z,5.18
2023-01-04T01:08:26.176Z,4.93
2023-01-04T01:09:28.411Z,5.35
2023-01-04T01:10:30.595Z,5.93
2023-01-04T01:11:33.243Z,5.13
2023-01-04T01:12:35.541Z,5.50
2023-01-04T01:13:38.357Z,5.68
2023-01-04T01:14:40.601Z,6.63
2023-01-04T01:15:42.913Z,6.43
2023-01-04T01:16:55.210Z,5.72
2023-01-04T01:17:59.083Z,8.95
2023-01-04T01:19:01.283Z,8.13
2023-01-04T01:20:04.659Z,7.72
2023-01-04T01:21:09.429Z,7.65
2023-01-04T01:22:11.586Z,7.07
2023-01-04T01:23:15.005Z,7.07
2023-01-04T01:24:19.530Z,7.20
2023-01-04T01:25:21.824Z,7.65
2023-01-04T01:26:25.409Z,6.63
2023-01-04T01:27:28.475Z,6.57
2023-01-04T01:28:31.145Z,7.10
2023-01-04T01:29:33.474Z,6.30
2023-01-04T01:30:40.607Z,4.88
2023-01-04T01:31:42.907Z,6.10
2023-01-04T01:32:45.126Z,7.57
2023-01-04T01:33:49.020Z,6.88
2023-01-04T01:34:51.299Z,5.32
2023-01-04T01:35:53.588Z,5.68
2023-01-04T01:36:56.292Z,5.22
2023-01-04T01:37:58.497Z,4.82
2023-01-04T01:39:00.830Z,4.82
2023-01-04T01:40:03.164Z,5.10
2023-01-04T01:41:07.443Z,5.10
2023-01-04T01:42:18.976Z,4.88
2023-01-04T01:43:42.603Z,5.63
2023-01-04T01:44:45.262Z,6.45
2023-01-04T01:45:53.083Z,5.57
2023-01-04T01:46:55.654Z,5.10
2023-01-04T01:48:04.963Z,6.40
2023-01-04T01:49:30.710Z,6.30
2023-01-04T01:50:38.908Z,5.95
2023-01-04T01:51:41.987Z,5.13
2023-01-04T01:52:44.300Z,5.03
2023-01-04T01:53:49.696Z,5.20
2023-01-04T01:55:01.144Z,4.97
2023-01-04T01:56:06.011Z,4.93
2023-01-04T01:57:10.634Z,5.10
2023-01-04T01:58:37.090Z,4.93
2023-01-04T01:59:42.575Z,5.13
2023-01-04T02:01:38.696Z,5.63
2023-01-04T02:02:53.713Z,5.30
2023-01-04T02:03:56.447Z,5.38
2023-01-04T02:05:02.023Z,5.20
2023-01-04T02:06:08.505Z,5.30
2023-01-04T02:07:13.139Z,5.22
2023-01-04T02:08:16.389Z,6.75
2023-01-04T02:09:20.393Z,5.97
2023-01-04T02:10:24.241Z,6.72
2023-01-04T02:11:27.068Z,5.80
2023-01-04T02:12:29.316Z,6.40
2023-01-04T02:13:52.349Z,6.28
2023-01-04T02:14:54.574Z,5.95
2023-01-04T02:16:15.211Z,5.95
2023-01-04T02:17:36.340Z,6.00
2023-01-04T02:18:50.544Z,6.65
2023-01-04T02:20:11.192Z,6.35
2023-01-04T02:21:41.792Z,5.57
2023-01-04T02:23:02.658Z,7.07
2023-01-04T02:24:26.092Z,6.50
2023-01-04T02:25:49.757Z,6.03
2023-01-04T02:26:57.441Z,7.85
2023-01-04T02:28:03.978Z,12.95
2023-01-04T02:29:47.972Z,29.95
2023-01-04T02:30:57.400Z,9.10
2023-01-04T02:32:36.779Z,7.68
2023-01-04T02:33:56.929Z,6.47
2023-01-04T02:35:24.305Z,6.43
2023-01-04T02:36:54.512Z,6.95
2023-01-04T02:38:24.299Z,7.40
2023-01-04T02:39:32.504Z,7.28
2023-01-04T02:40:46.213Z,7.97
2023-01-04T02:42:15.338Z,8.98
2023-01-04T02:43:46.989Z,9.45
2023-01-04T02:44:57.951Z,9.48
2023-01-04T02:46:25.894Z,10.90
2023-01-04T02:47:46.580Z,12.57
2023-01-04T02:49:27.419Z,10.82
2023-01-04T02:50:37.359Z,10.23
2023-01-04T02:51:39.635Z,9.55
2023-01-04T02:52:41.896Z,8.32
2023-01-04T02:53:44.106Z,7.72
2023-01-04T02:54:49.295Z,7.38
2023-01-04T02:56:35.322Z,6.38
2023-01-04T02:57:43.351Z,7.38
2023-01-04T02:59:07.111Z,5.97
2023-01-04T03:00:18.156Z,6.43
2023-01-04T03:02:01.423Z,6.30
2023-01-04T03:03:36.345Z,7.35
2023-01-04T03:05:09.192Z,6.03
2023-01-04T03:06:23.048Z,7.80
2023-01-04T03:07:33.804Z,7.95
2023-01-04T03:08:47.762Z,8.52
2023-01-04T03:09:53.240Z,7.00
2023-01-04T03:11:26.958Z,8.30
2023-01-04T03:12:32.878Z,9.60
2023-01-04T03:13:42.644Z,11.38
2023-01-04T03:14:52.104Z,10.20
2023-01-04T03:15:59.816Z,8.43
2023-01-04T03:17:06.929Z,7.75
2023-01-04T03:18:18.331Z,7.43
2023-01-04T03:19:42.305Z,7.38
2023-01-04T03:20:47.009Z,10.13
2023-01-04T03:21:49.326Z,8.90
2023-01-04T03:23:19.072Z,9.25
2023-01-04T03:24:40.135Z,9.13
2023-01-04T03:26:05.266Z,10.90
2023-01-04T03:27:26.837Z,7.25
2023-01-04T03:28:51.257Z,7.20
2023-01-04T03:30:22.922Z,7.05
2023-01-04T03:32:06.761Z,6.18
2023-01-04T03:33:27.775Z,6.22
2023-01-04T03:34:48.783Z,6.90
2023-01-04T03:35:58.233Z,6.45
2023-01-04T03:37:06.251Z,6.50
2023-01-04T03:38:41.308Z,6.60
2023-01-04T03:40:07.984Z,5.85
2023-01-04T03:41:37.170Z,7.20
2023-01-04T03:43:15.117Z,7.50
2023-01-04T03:45:10.316Z,7.80
2023-01-04T03:46:50.854Z,7.38
2023-01-04T03:48:31.489Z,7.97
2023-01-04T03:49:48.367Z,7.40
2023-01-04T03:50:56.911Z,6.78
2023-01-04T03:52:02.187Z,6.60
2023-01-04T03:53:07.361Z,6.18
2023-01-04T03:54:20.382Z,7.20
2023-01-04T03:55:24.077Z,6.93
2023-01-04T03:56:29.296Z,6.95
2023-01-04T03:57:33.299Z,6.53
2023-01-04T03:58:36.274Z,7.72
2023-01-04T03:59:43.818Z,7.35
2023-01-04T04:00:47.321Z,8.40
2023-01-04T04:01:50.139Z,7.32
2023-01-04T04:02:52.419Z,6.55
2023-01-04T04:04:13.936Z,6.05
2023-01-04T04:05:40.641Z,6.40
2023-01-04T04:07:01.942Z,7.30
2023-01-04T04:08:22.957Z,6.40
2023-01-04T04:09:25.406Z,8.38
2023-01-04T04:10:27.788Z,8.95
2023-01-04T04:11:30.130Z,9.10
2023-01-04T04:12:32.556Z,9.40
2023-01-04T04:13:34.802Z,8.88
2023-01-04T04:14:37.119Z,11.07
2023-01-04T04:15:39.900Z,11.93
2023-01-04T04:16:42.262Z,10.88
2023-01-04T04:17:44.545Z,10.98
2023-01-04T04:18:48.133Z,11.55
2023-01-04T04:19:50.338Z,10.05
2023-01-04T04:20:58.074Z,9.35
2023-01-04T04:22:00.292Z,8.40
2023-01-04T04:23:02.611Z,8.00
2023-01-04T04:24:05.311Z,8.75
2023-01-04T04:25:08.003Z,7.97
2023-01-04T04:26:10.449Z,8.02
2023-01-04T04:27:12.606Z,8.23
2023-01-04T04:28:14.807Z,7.15
2023-01-04T04:29:17.863Z,7.38
2023-01-04T04:30:20.136Z,6.25
2023-01-04T04:31:22.447Z,6.63
2023-01-04T04:32:24.747Z,7.95
2023-01-04T04:33:27.017Z,7.60
2023-01-04T04:34:29.213Z,8.13
2023-01-04T04:35:31.470Z,8.05
2023-01-04T04:36:33.724Z,7.57
2023-01-04T04:37:37.143Z,9.38
2023-01-04T04:38:39.479Z,8.68
2023-01-04T04:39:41.680Z,8.18
2023-01-04T04:41:02.751Z,7.70
2023-01-04T04:42:05.095Z,6.00
2023-01-04T04:43:08.408Z,8.00
2023-01-04T04:44:13.770Z,7.55
2023-01-04T04:45:16.016Z,7.68
2023-01-04T04:46:18.866Z,7.22
2023-01-04T04:47:21.072Z,6.70
2023-01-04T04:48:23.337Z,6.75
2023-01-04T04:49:25.628Z,5.75
2023-01-04T04:50:27.970Z,7.75
2023-01-04T04:51:30.242Z,6.07
2023-01-04T04:52:32.504Z,6.55
2023-01-04T04:53:34.796Z,7.50
2023-01-04T04:54:37.109Z,8.02
2023-01-04T04:55:39.429Z,7.53
2023-01-04T04:56:41.683Z,7.28
2023-01-04T04:57:43.908Z,6.32
2023-01-04T04:58:46.207Z,6.72
2023-01-04T04:59:48.444Z,6.35
2023-01-04T05:00:50.694Z,6.72
2023-01-04T05:01:53.019Z,7.22
2023-01-04T05:02:58.920Z,6.63
2023-01-04T05:04:01.222Z,6.28
2023-01-04T05:05:03.571Z,6.68
2023-01-04T05:06:06.325Z,6.65
2023-01-04T05:07:12.402Z,6.25
2023-01-04T05:08:15.153Z,6.90
2023-01-04T05:09:17.582Z,6.20
2023-01-04T05:10:19.887Z,6.55
2023-01-04T05:11:42.228Z,6.60
2023-01-04T05:13:02.410Z,6.30
2023-01-04T05:14:04.726Z,6.15
2023-01-04T05:15:07.351Z,6.63
2023-01-04T05:16:10.319Z,5.90
2023-01-04T05:17:12.528Z,6.20
2023-01-04T05:18:17.251Z,7.22
2023-01-04T05:19:19.409Z,6.57
2023-01-04T05:20:21.575Z,6.78
2023-01-04T05:21:23.830Z,6.63
2023-01-04T05:22:26.149Z,5.72
2023-01-04T05:23:28.561Z,5.88
2023-01-04T05:24:30.786Z,4.90
2023-01-04T05:25:33.767Z,5.53
2023-01-04T05:26:35.957Z,5.60
2023-01-04T05:27:38.395Z,5.75
2023-01-04T05:28:40.628Z,5.57
2023-01-04T05:30:01.196Z,5.28
2023-01-04T05:31:03.408Z,5.43
2023-01-04T05:32:05.850Z,5.50
2023-01-04T05:33:09.188Z,5.72
2023-01-04T05:34:11.933Z,5.10
2023-01-04T05:35:16.205Z,5.70
2023-01-04T05:36:18.399Z,5.10
2023-01-04T05:37:20.676Z,5.10
2023-01-04T05:38:23.431Z,5.60
2023-01-04T05:39:25.639Z,5.88
2023-01-04T05:40:28.065Z,5.72
2023-01-04T05:41:48.527Z,6.03
2023-01-04T05:42:51.141Z,6.88
2023-01-04T05:43:53.407Z,5.85
2023-01-04T05:44:57.383Z,5.72
2023-01-04T05:45:59.739Z,6.00
2023-01-04T05:47:02.111Z,5.70
2023-01-04T05:48:04.647Z,6.20
2023-01-04T05:49:06.816Z,5.18
2023-01-04T05:50:10.360Z,6.32
2023-01-04T05:51:12.806Z,5.72
2023-01-04T05:52:15.083Z,6.35
2023-01-04T05:53:18.264Z,7.13
2023-01-04T05:54:21.710Z,6.63
2023-01-04T05:55:24.207Z,7.20
2023-01-04T05:56:26.409Z,6.20
2023-01-04T05:57:28.671Z,6.88
2023-01-04T05:58:31.018Z,5.68
2023-01-04T05:59:37.257Z,6.03
2023-01-04T06:00:43.671Z,5.72
2023-01-04T06:01:45.979Z,5.72
2023-01-04T06:02:48.411Z,5.53
2023-01-04T06:03:51.095Z,4.85
2023-01-04T06:04:58.784Z,5.82
2023-01-04T06:06:01.830Z,6.13
2023-01-04T06:07:04.079Z,5.20
2023-01-04T06:08:06.401Z,5.18
2023-01-04T06:09:08.807Z,5.38
2023-01-04T06:10:12.892Z,4.60
2023-01-04T06:11:15.154Z,4.88
2023-01-04T06:12:17.455Z,5.20
2023-01-04T06:13:20.539Z,5.32
2023-01-04T06:14:22.722Z,4.47
2023-01-04T06:15:24.981Z,4.68
2023-01-04T06:16:27.331Z,4.80
2023-01-04T06:17:29.579Z,5.07
2023-01-04T06:18:31.817Z,4.47
2023-01-04T06:19:34.695Z,4.95
2023-01-04T06:20:36.937Z,4.97
2023-01-04T06:21:39.168Z,4.80
2023-01-04T06:22:41.689Z,4.75
2023-01-04T06:23:43.948Z,5.15
2023-01-04T06:24:46.238Z,5.05
2023-01-04T06:25:48.510Z,6.45
2023-01-04T06:26:50.949Z,6.63
2023-01-04T06:27:53.095Z,6.07
2023-01-04T06:28:55.315Z,6.80
2023-01-04T06:29:57.731Z,6.63
2023-01-04T06:31:07.648Z,7.22
2023-01-04T06:32:10.181Z,7.25
2023-01-04T06:33:12.371Z,7.82
2023-01-04T06:34:15.210Z,6.85
2023-01-04T06:35:17.387Z,8.05
2023-01-04T06:36:20.329Z,6.70
2023-01-04T06:37:23.189Z,6.53
2023-01-04T06:38:25.556Z,6.45
2023-01-04T06:39:27.863Z,5.82
2023-01-04T06:40:30.119Z,6.53
2023-01-04T06:41:32.362Z,6.32
2023-01-04T06:42:46.450Z,5.68
2023-01-04T06:43:49.133Z,5.80
2023-01-04T06:44:51.347Z,6.45
2023-01-04T06:45:53.741Z,5.68
2023-01-04T06:46:56.030Z,5.43
2023-01-04T06:47:58.258Z,4.95
2023-01-04T06:49:00.518Z,5.25
2023-01-04T06:50:02.945Z,5.28
2023-01-04T06:51:05.248Z,6.07
2023-01-04T06:52:07.521Z,6.20
2023-01-04T06:53:09.939Z,5.82
2023-01-04T06:54:12.205Z,6.60
2023-01-04T06:55:14.540Z,7.10
2023-01-04T06:56:16.805Z,7.10
2023-01-04T06:57:19.058Z,6.07
2023-01-04T06:58:21.305Z,7.10
2023-01-04T06:59:23.545Z,7.43
2023-01-04T07:03:12.668Z,7.38
2023-01-04T07:04:09.172Z,7.40
2023-01-04T07:05:11.519Z,8.52
2023-01-04T07:06:13.807Z,8.02
2023-01-04T07:07:15.976Z,6.82
2023-01-04T07:08:18.190Z,6.38
2023-01-04T07:09:20.388Z,6.47
2023-01-04T07:10:22.590Z,6.13
2023-01-04T07:11:24.886Z,8.00
2023-01-04T07:12:27.273Z,8.52
2023-01-04T07:13:29.495Z,7.22
2023-01-04T07:14:31.691Z,5.68
2023-01-04T07:15:38.635Z,5.40
2023-01-04T07:16:42.944Z,4.95
2023-01-04T07:17:48.034Z,5.00
2023-01-04T07:18:50.231Z,4.95
2023-01-04T07:19:52.710Z,5.07
2023-01-04T07:20:55.039Z,5.70
2023-01-04T07:21:58.664Z,6.57
2023-01-04T07:23:00.880Z,5.78
2023-01-04T07:24:03.228Z,5.90
2023-01-04T07:25:05.836Z,5.88
2023-01-04T07:26:08.111Z,5.70
2023-01-04T07:27:11.059Z,6.05
2023-01-04T07:28:33.374Z,6.40
2023-01-04T07:29:35.886Z,6.35
2023-01-04T07:30:38.164Z,7.07
2023-01-04T07:31:40.592Z,6.80
2023-01-04T07:32:42.845Z,6.93
2023-01-04T07:33:45.095Z,6.63
2023-01-04T07:34:47.384Z,6.88
2023-01-04T07:35:49.665Z,7.18
2023-01-04T07:36:52.313Z,6.70
2023-01-04T07:37:58.809Z,7.80
2023-01-04T07:39:01.825Z,8.82
2023-01-04T07:40:04.847Z,8.38
2023-01-04T07:41:07.003Z,9.48
2023-01-04T07:42:10.254Z,11.30
2023-01-04T07:43:12.452Z,11.20
2023-01-04T07:44:15.842Z,12.77
2023-01-04T07:45:18.144Z,12.68
2023-01-04T07:46:22.035Z,10.52
2023-01-04T07:47:24.499Z,11.00
2023-01-04T07:48:29.369Z,10.30
2023-01-04T07:49:31.679Z,9.05
2023-01-04T07:50:34.173Z,8.60
2023-01-04T07:51:36.475Z,8.40
2023-01-04T07:52:38.742Z,8.48
2023-01-04T07:53:40.954Z,8.35
2023-01-04T07:54:43.203Z,7.70
2023-01-04T07:55:45.619Z,7.20
2023-01-04T07:56:48.167Z,6.90
2023-01-04T07:57:53.229Z,6.07
2023-01-04T07:58:57.467Z,6.85
2023-01-04T07:59:59.800Z,6.78
2023-01-04T08:01:09.750Z,6.32
2023-01-04T08:02:13.123Z,7.35
2023-01-04T08:03:15.779Z,5.57
2023-01-04T08:04:21.808Z,4.82
2023-01-04T08:05:25.146Z,3.65
2023-01-04T08:06:27.553Z,3.88
2023-01-04T08:07:29.757Z,3.97
2023-01-04T08:08:32.170Z,3.88
2023-01-04T08:09:34.368Z,3.92
2023-01-04T08:10:36.693Z,5.32
2023-01-04T08:11:39.048Z,4.30
2023-01-04T08:12:41.286Z,4.65
2023-01-04T08:13:44.086Z,4.90
2023-01-04T08:14:46.280Z,4.30
2023-01-04T08:15:55.035Z,4.60
2023-01-04T08:16:57.314Z,4.03
2023-01-04T08:17:59.528Z,4.70
2023-01-04T08:19:20.405Z,4.70
2023-01-04T08:20:22.650Z,4.13
2023-01-04T08:21:25.661Z,4.53
2023-01-04T08:22:27.871Z,5.20
2023-01-04T08:23:30.174Z,4.68
2023-01-04T08:24:32.451Z,5.65
2023-01-04T08:25:34.666Z,6.25
2023-01-04T08:26:36.844Z,6.18
2023-01-04T08:27:39.123Z,6.00
2023-01-04T08:28:42.144Z,5.57
2023-01-04T08:29:44.498Z,4.75
2023-01-04T08:30:46.718Z,5.00
2023-01-04T08:31:48.978Z,5.38
2023-01-04T08:32:53.512Z,6.10
2023-01-04T08:33:57.162Z,4.20
2023-01-04T08:34:59.445Z,3.63
2023-01-04T08:36:35.280Z,3.17
2023-01-04T08:37:37.505Z,2.33
2023-01-04T08:40:02.290Z,3.10
2023-01-04T08:41:31.022Z,2.40
2023-01-04T08:42:31.591Z,1.90
2023-01-04T08:43:35.882Z,1.30
2023-01-04T08:44:38.397Z,1.10
2023-01-04T08:45:40.684Z,1.30
2023-01-04T08:46:43.123Z,1.10
2023-01-04T08:47:45.374Z,0.90
2023-01-04T08:48:47.621Z,1.00
2023-01-04T08:49:49.842Z,0.80
2023-01-04T08:50:52.040Z,0.70
2023-01-04T08:51:54.241Z,0.98
2023-01-04T08:52:56.458Z,0.88
2023-01-04T08:53:59.112Z,1.27
2023-01-04T08:55:04.369Z,1.05
2023-01-04T08:56:09.507Z,1.00
2023-01-04T08:57:11.754Z,0.60
2023-01-04T08:58:13.951Z,0.93
2023-01-04T08:59:16.278Z,1.00
2023-01-04T09:00:21.597Z,1.42
2023-01-04T09:01:23.916Z,0.77
2023-01-04T09:02:28.211Z,0.90
2023-01-04T09:03:31.112Z,0.80
2023-01-04T09:04:33.585Z,1.23
2023-01-04T09:05:35.957Z,1.05
2023-01-04T09:06:39.482Z,1.58
2023-01-04T09:07:41.828Z,1.65
2023-01-04T09:08:44.499Z,1.80
2023-01-04T09:09:46.860Z,1.50
2023-01-04T09:10:49.007Z,1.00
2023-01-04T09:11:51.282Z,0.85
2023-01-04T09:12:53.567Z,0.93
2023-01-04T09:14:06.397Z,0.80
2023-01-04T09:15:09.975Z,1.00
2023-01-04T09:16:17.868Z,1.20
2023-01-04T09:17:20.100Z,0.80
2023-01-04T09:18:31.449Z,1.00
2023-01-04T09:19:34.781Z,1.02
2023-01-04T09:20:37.458Z,1.20
2023-01-04T09:21:39.756Z,0.98
2023-01-04T09:22:42.282Z,1.20
2023-01-04T09:23:45.551Z,0.90
2023-01-04T09:24:47.728Z,0.90
2023-01-04T09:25:50.456Z,1.08
2023-01-04T09:26:52.710Z,0.98
2023-01-04T09:27:55.006Z,0.60
2023-01-04T09:28:57.347Z,0.98
2023-01-04T09:30:00.443Z,0.88
2023-01-04T09:31:11.500Z,0.90
2023-01-04T09:32:16.865Z,0.80
2023-01-04T09:33:19.269Z,0.80
2023-01-04T09:34:21.495Z,0.80
2023-01-04T09:35:23.808Z,0.85
2023-01-04T09:36:26.179Z,0.80
2023-01-04T09:37:28.763Z,0.88
2023-01-04T09:38:33.239Z,0.90
2023-01-04T09:39:35.543Z,1.48
2023-01-04T09:40:47.688Z,0.77
2023-01-04T09:41:55.800Z,1.20
2023-01-04T09:43:21.170Z,0.77
2023-01-04T09:45:21.917Z,0.70
2023-01-04T09:46:13.621Z,0.90
2023-01-04T09:47:19.600Z,0.90
2023-01-04T09:48:26.911Z,0.85
2023-01-04T09:49:41.317Z,1.02
2023-01-04T09:50:54.421Z,0.80
2023-01-04T09:52:21.734Z,0.85
2023-01-04T09:53:31.085Z,0.98
2023-01-04T09:54:45.538Z,0.80
2023-01-04T09:55:50.705Z,0.90
2023-01-04T09:56:58.579Z,1.00
2023-01-04T09:58:08.087Z,0.82
2023-01-04T09:59:17.027Z,0.82
2023-01-04T10:00:30.447Z,0.70
2023-01-04T10:01:49.708Z,0.50
2023-01-04T10:03:28.330Z,0.82
2023-01-04T10:04:41.119Z,1.02
2023-01-04T10:05:43.353Z,0.70
2023-01-04T10:06:45.764Z,0.88
2023-01-04T10:07:48.151Z,0.60
2023-01-04T10:08:50.420Z,0.75
2023-01-04T10:09:52.682Z,0.80
2023-01-04T10:11:11.313Z,0.70
2023-01-04T10:12:36.936Z,0.70
2023-01-04T10:14:06.676Z,0.70
2023-01-04T10:15:27.469Z,0.70
2023-01-04T10:21:21.806Z,0.77
2023-01-04T10:22:40.018Z,1.20
2023-01-04T10:23:44.986Z,1.08
2023-01-04T10:24:55.971Z,1.20
2023-01-04T10:26:11.570Z,0.70
2023-01-04T10:27:42.505Z,0.80
2023-01-04T10:29:19.526Z,0.70
2023-01-04T10:30:40.491Z,0.85
2023-01-04T10:32:30.599Z,0.55
2023-01-04T10:33:39.013Z,0.80
2023-01-04T10:34:45.809Z,0.50
2023-01-04T10:35:49.411Z,0.77
2023-01-04T10:36:58.370Z,0.95
2023-01-04T10:38:03.467Z,0.60
2023-01-04T10:39:18.125Z,0.60
2023-01-04T10:40:20.627Z,0.75
2023-01-04T10:41:26.774Z,0.65
2023-01-04T10:42:40.612Z,1.10
2023-01-04T10:44:10.598Z,0.73
2023-01-04T10:45:27.363Z,0.77
2023-01-04T10:46:35.891Z,1.25
2023-01-04T10:48:03.203Z,1.98
2023-01-04T10:49:16.379Z,0.80
2023-01-04T10:50:39.622Z,0.80
2023-01-04T10:51:57.476Z,0.57
2023-01-04T10:53:07.203Z,0.80
2023-01-04T10:54:21.430Z,0.60
2023-01-04T10:56:25.281Z,0.90
2023-01-04T10:57:19.387Z,0.70
2023-01-04T10:58:31.948Z,1.02
2023-01-04T10:59:49.727Z,0.85
2023-01-04T11:01:00.397Z,0.73
2023-01-04T11:02:07.838Z,1.08
2023-01-04T11:03:19.485Z,0.68
2023-01-04T11:04:28.879Z,1.00
2023-01-04T11:05:48.252Z,0.60
2023-01-04T11:07:02.536Z,0.70
2023-01-04T11:08:15.864Z,0.77
2023-01-04T11:09:38.541Z,0.60
2023-01-04T11:11:14.168Z,0.50
2023-01-04T11:12:19.102Z,0.60
2023-01-04T11:13:23.054Z,0.82
2023-01-04T11:14:25.720Z,0.90
2023-01-04T11:15:29.636Z,0.90
2023-01-04T11:16:32.221Z,0.80
2023-01-04T11:17:35.892Z,0.90
2023-01-04T11:18:40.732Z,0.90
2023-01-04T11:19:43.238Z,1.00
2023-01-04T11:20:45.454Z,0.98
2023-01-04T11:22:09.125Z,0.98
2023-01-04T11:23:20.754Z,0.75
2023-01-04T11:24:32.044Z,0.70
2023-01-04T11:25:53.632Z,1.00
2023-01-04T11:27:04.460Z,0.82
2023-01-04T11:28:16.056Z,1.00
2023-01-04T11:29:40.700Z,0.77
2023-01-04T11:30:58.761Z,0.88
2023-01-04T11:32:07.113Z,0.70
2023-01-04T11:33:18.901Z,0.70
2023-01-04T11:34:45.491Z,0.80
2023-01-04T11:35:59.169Z,0.88
2023-01-04T11:37:01.720Z,0.95
2023-01-04T11:38:18.163Z,0.90
2023-01-04T11:39:25.289Z,0.90
2023-01-04T11:40:28.508Z,0.95
2023-01-04T11:41:30.746Z,1.00
2023-01-04T11:42:33.075Z,0.80
2023-01-04T11:43:37.959Z,0.95
2023-01-04T11:44:41.904Z,0.90
2023-01-04T11:45:58.786Z,0.80
2023-01-04T11:47:08.291Z,0.98
2023-01-04T11:48:15.337Z,0.70
2023-01-04T11:49:20.359Z,0.70
2023-01-04T11:50:42.598Z,0.90
2023-01-04T11:51:44.838Z,1.23
2023-01-04T11:52:47.589Z,1.10
2023-01-04T11:54:00.544Z,1.05
2023-01-04T11:55:24.797Z,0.80
2023-01-04T11:56:29.854Z,1.00
2023-01-04T11:57:32.116Z,1.02
2023-01-04T11:58:34.552Z,0.98
2023-01-04T11:59:37.041Z,0.98
2023-01-04T12:00:49.254Z,1.13
2023-01-04T12:02:03.737Z,1.00
2023-01-04T12:03:14.227Z,1.10
2023-01-04T12:04:20.474Z,0.63
2023-01-04T12:05:29.458Z,1.40
2023-01-04T12:06:34.728Z,1.25
2023-01-04T12:07:36.960Z,1.10
2023-01-04T12:08:39.514Z,1.08
2023-01-04T12:09:41.801Z,1.00
2023-01-04T12:10:44.212Z,0.95
2023-01-04T12:11:56.208Z,1.50
2023-01-04T12:13:01.082Z,1.10
2023-01-04T12:14:05.325Z,1.05
2023-01-04T12:15:17.056Z,1.27
2023-01-04T12:16:43.869Z,1.40
2023-01-04T12:17:53.161Z,0.70
2023-01-04T12:18:55.651Z,1.00
2023-01-04T12:20:01.647Z,1.17
2023-01-04T12:21:04.301Z,1.08
2023-01-04T12:22:21.105Z,1.00
2023-01-04T12:23:23.603Z,1.10
2023-01-04T12:24:31.746Z,1.13
2023-01-04T12:26:00.940Z,1.05
2023-01-04T12:27:04.359Z,0.77
2023-01-04T12:28:06.685Z,0.70
2023-01-04T12:29:23.868Z,3.30
2023-01-04T12:30:46.636Z,1.40
2023-01-04T12:32:11.807Z,2.25
2023-01-04T12:33:32.175Z,1.27
2023-01-04T12:34:34.328Z,2.63
2023-01-04T12:35:59.965Z,1.17
2023-01-04T12:37:05.939Z,2.03
2023-01-04T12:38:09.645Z,1.38
2023-01-04T12:39:14.498Z,3.92
2023-01-04T12:40:47.747Z,2.67
2023-01-04T12:42:01.808Z,6.00
2023-01-04T12:43:22.915Z,2.38
2023-01-04T12:44:37.267Z,2.08
2023-01-04T12:45:39.729Z,1.95
2023-01-04T12:47:00.952Z,1.60
2023-01-04T12:48:47.917Z,8.23
2023-01-04T12:49:59.287Z,2.75
2023-01-04T12:51:31.782Z,0.80
2023-01-04T12:54:00.056Z,1.20
2023-01-04T12:55:21.997Z,0.90
2023-01-04T12:57:02.573Z,1.38
2023-01-04T12:59:24.225Z,1.42
2023-01-04T13:00:08.940Z,1.00
2023-01-04T13:01:23.730Z,2.88
2023-01-04T13:02:27.767Z,3.60
2023-01-04T13:03:30.040Z,1.00
2023-01-04T13:04:42.683Z,0.82
2023-01-04T13:05:58.360Z,1.52
2023-01-04T13:07:30.009Z,1.58
2023-01-04T13:08:40.383Z,1.75
2023-01-04T13:09:51.156Z,1.08
2023-01-04T13:10:55.840Z,1.40
2023-01-04T13:12:19.816Z,0.60
2023-01-04T13:13:43.430Z,1.00
2023-01-04T13:14:52.483Z,0.57
2023-01-04T13:16:22.579Z,0.85
2023-01-04T13:17:26.945Z,0.75
2023-01-04T13:18:29.184Z,0.52
2023-01-04T13:19:31.460Z,1.00
2023-01-04T13:20:38.362Z,0.90
2023-01-04T13:21:45.938Z,0.50
2023-01-04T13:22:52.686Z,0.93
2023-01-04T13:24:00.854Z,0.70
2023-01-04T13:25:04.752Z,0.70
2023-01-04T13:26:28.353Z,0.90
2023-01-04T13:27:30.670Z,0.85
2023-01-04T13:28:33.110Z,0.65
2023-01-04T13:29:36.288Z,0.70
2023-01-04T13:30:39.657Z,0.70
2023-01-04T13:31:50.044Z,0.65
2023-01-04T13:33:24.752Z,0.70
2023-01-04T13:35:22.545Z,0.70
2023-01-04T13:36:25.057Z,0.63
2023-01-04T13:37:31.755Z,0.60
2023-01-04T13:38:34.585Z,0.70
2023-01-04T13:39:45.725Z,0.60
2023-01-04T13:40:49.465Z,0.60
2023-01-04T13:41:52.916Z,0.90
2023-01-04T13:43:16.683Z,0.70
2023-01-04T13:46:26.787Z,1.00
2023-01-04T13:47:34.563Z,0.77
2023-01-04T13:48:39.927Z,0.60
2023-01-04T13:49:42.202Z,0.82
2023-01-04T13:51:03.902Z,0.68
2023-01-04T13:53:53.449Z,0.70
2023-01-04T13:55:12.724Z,0.77
2023-01-04T13:56:22.353Z,0.82
2023-01-04T13:57:25.015Z,0.60
2023-01-04T13:58:30.607Z,0.60
2023-01-04T13:59:32.770Z,0.75
2023-01-04T14:00:45.839Z,0.80
2023-01-04T14:01:51.586Z,0.93
2023-01-04T14:03:15.701Z,0.77
2023-01-04T14:04:26.542Z,0.70
2023-01-04T14:05:28.811Z,0.70
2023-01-04T14:06:44.285Z,0.70
2023-01-04T14:07:46.521Z,0.60
2023-01-04T14:08:51.635Z,0.65
2023-01-04T14:09:58.147Z,0.75
2023-01-04T14:11:01.293Z,0.68
2023-01-04T14:12:16.654Z,0.70
2023-01-04T14:13:20.468Z,0.82
2023-01-04T14:14:37.567Z,0.70
2023-01-04T14:15:39.957Z,0.68
2023-01-04T14:16:42.255Z,0.55
2023-01-04T14:17:49.600Z,0.90
2023-01-04T14:18:51.755Z,1.38
2023-01-04T14:19:58.828Z,1.33
2023-01-04T14:21:01.053Z,2.67
2023-01-04T14:22:19.335Z,0.90
2023-01-04T14:23:29.848Z,0.43
2023-01-04T14:25:56.644Z,1.30
2023-01-04T14:26:59.012Z,1.35
2023-01-04T14:28:19.568Z,0.50
2023-01-04T14:29:22.691Z,1.10
2023-01-04T14:30:25.333Z,0.80
2023-01-04T14:31:31.442Z,0.80
2023-01-04T14:32:33.757Z,0.60
2023-01-04T14:33:36.239Z,1.17
2023-01-04T14:34:38.478Z,2.45
2023-01-04T14:35:46.432Z,0.70
2023-01-04T14:37:03.516Z,7.07
2023-01-04T14:38:11.370Z,1.38
2023-01-04T14:39:21.036Z,0.70
2023-01-04T14:40:28.532Z,0.70
2023-01-04T14:41:38.081Z,10.25
2023-01-04T14:42:40.779Z,2.63
2023-01-04T14:43:46.816Z,0.90
2023-01-04T14:44:48.971Z,1.77
2023-01-04T14:45:51.248Z,0.80
2023-01-04T14:46:55.874Z,0.82
2023-01-04T14:47:58.155Z,1.25
2023-01-04T14:49:00.402Z,0.80
2023-01-04T14:50:02.653Z,2.45
2023-01-04T14:51:05.984Z,0.60
2023-01-04T14:52:19.987Z,1.65
2023-01-04T14:53:22.213Z,1.00
2023-01-04T14:54:25.983Z,0.80
2023-01-04T14:55:28.177Z,0.75
2023-01-04T14:56:30.422Z,2.13
2023-01-04T14:57:35.651Z,1.25
2023-01-04T14:58:37.844Z,0.70
2023-01-04T14:59:41.186Z,1.15
2023-01-04T15:00:43.572Z,0.65
2023-01-04T15:01:46.202Z,0.77
2023-01-04T15:02:50.768Z,0.70
2023-01-04T15:03:53.391Z,0.70
2023-01-04T15:04:55.723Z,0.90
2023-01-04T15:05:58.047Z,0.60
2023-01-04T15:07:01.321Z,1.42
2023-01-04T15:08:03.756Z,0.90
2023-01-04T15:09:06.157Z,0.80
2023-01-04T15:10:20.802Z,0.90
2023-01-04T15:11:23.087Z,0.70
2023-01-04T15:12:25.299Z,1.00
2023-01-04T15:13:28.518Z,0.90
2023-01-04T15:14:33.423Z,0.75
2023-01-04T15:15:35.757Z,1.90
2023-01-04T15:16:38.159Z,1.25
2023-01-04T15:17:40.648Z,2.15
2023-01-04T15:18:43.848Z,1.00
2023-01-04T15:19:46.063Z,1.83